createdAt,value
2022-12-09T00:01:31.345Z,7.53
2022-12-09T00:03:59.808Z,7.67
2022-12-09T00:06:30.117Z,7.42
2022-12-09T00:08:58.645Z,7.92
2022-12-09T00:11:27.236Z,10.28
2022-12-09T00:13:58.437Z,9.23
2022-12-09T00:16:26.356Z,7.60
2022-12-09T00:18:54.388Z,8.93
2022-12-09T00:21:29.160Z,10.03
2022-12-09T00:23:58.894Z,10.18
2022-12-09T00:26:27.624Z,9.05
2022-12-09T00:28:56.419Z,10.35
2022-12-09T00:31:28.631Z,9.93
2022-12-09T00:34:00.369Z,10.53
2022-12-09T00:36:29.850Z,8.95
2022-12-09T00:38:59.391Z,9.58
2022-12-09T00:41:28.822Z,9.58
2022-12-09T00:43:57.840Z,9.78
2022-12-09T00:46:25.987Z,8.65
2022-12-09T00:48:53.828Z,9.78
2022-12-09T00:51:24.692Z,9.10
2022-12-09T00:53:55.201Z,13.88
2022-12-09T00:56:25.974Z,14.90
2022-12-09T00:58:53.876Z,10.05
2022-12-09T01:01:21.728Z,10.70
2022-12-09T01:03:50.337Z,11.48
2022-12-09T01:06:22.101Z,12.05
2022-12-09T01:08:50.732Z,8.58
2022-12-09T01:11:25.868Z,11.12
2022-12-09T01:13:56.551Z,19.98
2022-12-09T01:16:27.510Z,13.90
2022-12-09T01:18:58.987Z,13.43
2022-12-09T01:21:28.207Z,17.15
2022-12-09T01:23:56.124Z,23.02
2022-12-09T01:26:24.108Z,10.32
2022-12-09T01:28:52.702Z,8.35
2022-12-09T01:31:24.004Z,6.90
2022-12-09T01:33:54.788Z,8.23
2022-12-09T01:36:26.797Z,8.35
2022-12-09T01:38:58.888Z,8.60
2022-12-09T01:41:28.189Z,8.48
2022-12-09T01:44:15.787Z,9.08
2022-12-09T01:46:44.695Z,9.15
2022-12-09T01:49:17.317Z,8.20
2022-12-09T01:51:50.348Z,11.90
2022-12-09T01:54:18.653Z,10.90
2022-12-09T01:56:46.429Z,11.73
2022-12-09T01:59:15.894Z,14.93
2022-12-09T02:01:47.857Z,13.85
2022-12-09T02:04:17.236Z,15.98
2022-12-09T02:06:45.282Z,20.95
2022-12-09T02:09:14.953Z,23.42
2022-12-09T02:12:19.255Z,23.47
2022-12-09T02:15:07.529Z,19.23
2022-12-09T02:17:59.321Z,23.57
2022-12-09T02:21:06.353Z,29.48
2022-12-09T02:23:44.850Z,18.52
2022-12-09T02:26:30.973Z,15.50
2022-12-09T02:29:22.306Z,14.83
2022-12-09T02:32:17.901Z,12.03
2022-12-09T02:34:54.120Z,13.03
2022-12-09T02:38:02.379Z,21.95
2022-12-09T02:40:47.453Z,15.63
2022-12-09T02:43:17.913Z,14.60
2022-12-09T02:45:47.553Z,12.85
2022-12-09T02:48:19.195Z,10.82
2022-12-09T02:50:49.614Z,9.63
2022-12-09T02:53:18.587Z,11.15
2022-12-09T02:55:49.101Z,9.13
2022-12-09T02:58:16.843Z,9.00
2022-12-09T03:00:45.092Z,9.98
2022-12-09T03:03:18.465Z,11.60
2022-12-09T03:06:08.400Z,15.53
2022-12-09T03:08:50.737Z,12.25
2022-12-09T03:11:22.689Z,13.45
2022-12-09T03:14:18.690Z,17.65
2022-12-09T03:17:00.584Z,26.33
2022-12-09T03:19:45.868Z,24.07
2022-12-09T03:22:17.938Z,19.92
2022-12-09T03:25:15.231Z,20.88
2022-12-09T03:28:05.328Z,22.93
2022-12-09T03:30:37.455Z,19.12
2022-12-09T03:33:05.213Z,18.35
2022-12-09T03:35:46.872Z,17.82
2022-12-09T03:38:18.455Z,18.32
2022-12-09T03:40:50.942Z,21.80
2022-12-09T03:43:29.339Z,24.02
2022-12-09T03:45:58.208Z,20.02
2022-12-09T03:48:26.377Z,18.23
2022-12-09T03:51:02.448Z,17.65
2022-12-09T03:53:41.653Z,16.40
2022-12-09T03:56:26.434Z,13.32
2022-12-09T03:58:57.375Z,16.82
2022-12-09T04:01:26.344Z,13.78
2022-12-09T04:03:56.670Z,18.40
2022-12-09T04:06:25.314Z,35.58
2022-12-09T04:08:56.769Z,33.08
2022-12-09T04:11:23.048Z,28.05
2022-12-09T04:13:50.646Z,23.65
2022-12-09T04:16:18.694Z,23.55
2022-12-09T04:18:46.667Z,20.82
2022-12-09T04:21:15.122Z,28.62
2022-12-09T04:23:43.683Z,16.15
2022-12-09T04:26:21.847Z,14.60
2022-12-09T04:28:50.667Z,15.60
2022-12-09T04:31:19.806Z,17.90
2022-12-09T04:33:47.952Z,39.98
2022-12-09T04:36:19.771Z,34.50
2022-12-09T04:38:47.899Z,15.28
2022-12-09T04:41:16.267Z,11.15
2022-12-09T04:43:44.619Z,10.35
2022-12-09T04:46:15.652Z,14.40
2022-12-09T04:48:45.043Z,19.85
2022-12-09T04:51:15.561Z,15.43
2022-12-09T04:53:44.466Z,18.90
2022-12-09T04:56:18.371Z,20.32
2022-12-09T04:58:47.813Z,18.75
2022-12-09T05:01:26.369Z,20.80
2022-12-09T05:03:53.275Z,24.77
2022-12-09T05:06:22.292Z,23.15
2022-12-09T05:08:51.373Z,27.67
2022-12-09T05:11:20.809Z,36.58
2022-12-09T05:13:49.339Z,49.77
2022-12-09T05:16:19.824Z,49.48
2022-12-09T05:18:49.125Z,46.77
2022-12-09T05:21:20.254Z,48.90
2022-12-09T05:23:49.482Z,49.60
2022-12-09T05:26:20.850Z,51.42
2022-12-09T05:28:50.479Z,50.08
2022-12-09T05:31:22.111Z,49.42
2022-12-09T05:33:51.649Z,54.00
2022-12-09T05:36:24.360Z,39.42
2022-12-09T05:38:53.353Z,40.92
2022-12-09T05:41:23.668Z,32.15
2022-12-09T05:43:51.954Z,24.18
2022-12-09T05:46:20.775Z,22.52
2022-12-09T05:48:49.106Z,22.90
2022-12-09T05:51:27.177Z,23.07
2022-12-09T05:53:55.997Z,27.20
2022-12-09T05:56:25.406Z,23.55
2022-12-09T05:58:55.188Z,36.45
2022-12-09T06:01:24.463Z,101.80
2022-12-09T06:03:54.189Z,41.53
2022-12-09T06:06:27.592Z,37.78
2022-12-09T06:11:28.022Z,47.03
2022-12-09T06:13:56.171Z,38.35
2022-12-09T06:16:25.015Z,44.20
2022-12-09T06:18:53.471Z,41.85
2022-12-09T06:21:22.242Z,40.70
2022-12-09T06:23:51.050Z,34.58
2022-12-09T06:26:29.694Z,23.47
2022-12-09T06:28:59.075Z,20.88
2022-12-09T06:31:29.061Z,26.07
2022-12-09T06:33:58.567Z,26.55
2022-12-09T06:36:29.356Z,25.82
2022-12-09T06:39:01.791Z,27.55
2022-12-09T06:41:28.842Z,28.20
2022-12-09T06:44:00.846Z,24.63
2022-12-09T06:46:29.743Z,27.10
2022-12-09T06:48:57.650Z,27.65
2022-12-09T06:51:26.254Z,29.52
2022-12-09T06:53:54.366Z,25.27
2022-12-09T06:56:23.240Z,24.37
2022-12-09T06:58:51.328Z,24.63
2022-12-09T07:01:23.804Z,33.18
2022-12-09T07:03:54.698Z,53.23
2022-12-09T07:06:40.044Z,53.38
2022-12-09T07:09:18.057Z,48.42
2022-12-09T07:11:47.404Z,42.17
2022-12-09T07:14:18.376Z,37.45
2022-12-09T07:16:47.332Z,33.20
2022-12-09T07:19:19.023Z,42.00
2022-12-09T07:21:48.560Z,41.70
2022-12-09T07:24:18.490Z,38.63
2022-12-09T07:26:47.009Z,39.05
2022-12-09T07:29:15.298Z,47.70
2022-12-09T07:31:44.619Z,28.70
2022-12-09T07:34:12.607Z,21.82
2022-12-09T07:36:40.829Z,22.85
2022-12-09T07:39:15.509Z,24.82
2022-12-09T07:41:44.037Z,29.30
2022-12-09T07:44:12.640Z,28.00
2022-12-09T07:46:40.863Z,27.77
2022-12-09T07:49:11.201Z,27.52
2022-12-09T07:51:39.478Z,32.98
2022-12-09T07:54:16.373Z,28.65
2022-12-09T07:56:44.961Z,26.37
2022-12-09T07:59:14.723Z,25.90
2022-12-09T08:01:43.737Z,29.12
2022-12-09T08:04:12.316Z,29.25
2022-12-09T08:06:40.659Z,27.30
2022-12-09T08:09:13.396Z,27.45
2022-12-09T08:11:41.835Z,26.55
2022-12-09T08:14:12.829Z,27.48
2022-12-09T08:16:42.608Z,26.90
2022-12-09T08:19:12.467Z,33.18
2022-12-09T08:21:40.752Z,31.75
2022-12-09T08:24:11.789Z,24.15
2022-12-09T08:26:40.528Z,26.87
2022-12-09T08:29:14.037Z,25.88
2022-12-09T08:31:43.934Z,28.52
2022-12-09T08:34:13.086Z,29.35
2022-12-09T08:36:41.838Z,30.30
2022-12-09T08:39:11.693Z,26.15
2022-12-09T08:41:40.384Z,30.50
2022-12-09T08:44:17.985Z,25.55
2022-12-09T08:46:51.380Z,25.20
2022-12-09T08:51:52.605Z,29.42
2022-12-09T08:54:20.974Z,31.23
2022-12-09T08:56:52.224Z,29.65
2022-12-09T08:59:20.347Z,26.50
2022-12-09T09:01:48.512Z,25.70
2022-12-09T09:04:19.499Z,26.68
2022-12-09T09:06:50.595Z,24.95
2022-12-09T09:09:21.409Z,26.55
2022-12-09T09:11:50.247Z,24.32
2022-12-09T09:14:18.268Z,24.60
2022-12-09T09:16:46.479Z,20.80
2022-12-09T09:19:22.599Z,19.52
2022-12-09T09:21:50.835Z,20.05
2022-12-09T09:24:23.085Z,19.57
2022-12-09T09:26:52.632Z,20.57
2022-12-09T09:29:22.941Z,22.17
2022-12-09T09:31:53.460Z,24.98
2022-12-09T09:34:22.321Z,24.87
2022-12-09T09:36:52.695Z,27.65
2022-12-09T09:39:20.917Z,23.20
2022-12-09T09:42:03.239Z,25.92
2022-12-09T09:44:45.523Z,25.37
2022-12-09T09:47:27.838Z,21.12
2022-12-09T09:50:05.113Z,22.05
2022-12-09T09:52:36.972Z,21.40
2022-12-09T09:55:25.163Z,21.95
2022-12-09T09:58:19.730Z,24.07
2022-12-09T10:01:11.441Z,24.72
2022-12-09T10:04:20.666Z,21.10
2022-12-09T10:07:05.557Z,19.67
2022-12-09T10:09:54.880Z,19.45
2022-12-09T10:12:31.704Z,22.73
2022-12-09T10:15:17.091Z,22.42
2022-12-09T10:17:52.267Z,24.47
2022-12-09T10:20:28.494Z,22.32
2022-12-09T10:23:04.408Z,25.23
2022-12-09T10:25:37.577Z,22.07
2022-12-09T10:28:10.934Z,20.52
2022-12-09T10:30:44.216Z,25.40
2022-12-09T10:33:14.870Z,32.40
2022-12-09T10:35:43.377Z,44.83
2022-12-09T10:38:17.603Z,62.50
2022-12-09T10:40:52.453Z,55.65
2022-12-09T10:43:43.401Z,52.13
2022-12-09T10:46:23.193Z,29.85
2022-12-09T10:48:58.091Z,29.87
2022-12-09T10:51:29.220Z,36.95
2022-12-09T10:54:15.304Z,40.25
2022-12-09T10:57:06.592Z,28.32
2022-12-09T10:59:36.663Z,21.65
2022-12-09T11:02:18.273Z,21.17
2022-12-09T11:04:47.216Z,23.73
2022-12-09T11:07:22.956Z,25.75
2022-12-09T11:10:02.865Z,23.32
2022-12-09T11:12:40.456Z,25.90
2022-12-09T11:15:34.672Z,25.27
2022-12-09T11:18:19.213Z,28.00
2022-12-09T11:21:00.987Z,26.02
2022-12-09T11:23:30.822Z,25.15
2022-12-09T11:26:03.922Z,26.27
2022-12-09T11:28:39.515Z,19.55
2022-12-09T11:31:28.860Z,17.80
2022-12-09T11:34:00.596Z,17.92
2022-12-09T11:36:38.576Z,18.50
2022-12-09T11:39:28.153Z,19.65
2022-12-09T11:42:20.197Z,25.08
2022-12-09T11:45:08.087Z,29.12
2022-12-09T11:50:23.503Z,22.98
2022-12-09T11:53:31.470Z,26.30
2022-12-09T11:56:18.136Z,32.40
2022-12-09T11:59:03.611Z,26.27
2022-12-09T12:01:56.607Z,18.65
2022-12-09T12:04:35.492Z,23.70
2022-12-09T12:07:23.935Z,21.35
2022-12-09T12:09:57.638Z,18.55
2022-12-09T12:12:53.464Z,19.37
2022-12-09T12:15:38.789Z,19.32
2022-12-09T12:18:12.830Z,19.12
2022-12-09T12:21:04.030Z,17.52
2022-12-09T12:23:49.026Z,16.15
2022-12-09T12:26:24.223Z,17.30
2022-12-09T12:29:21.761Z,16.07
2022-12-09T12:32:06.540Z,15.55
2022-12-09T12:35:19.100Z,18.32
2022-12-09T12:38:11.827Z,15.40
2022-12-09T12:40:53.828Z,17.70
2022-12-09T12:44:11.326Z,17.27
2022-12-09T12:47:23.921Z,15.98
2022-12-09T12:50:09.420Z,19.67
2022-12-09T12:53:15.835Z,16.82
2022-12-09T12:55:51.783Z,19.12
2022-12-09T12:58:41.652Z,16.73
2022-12-09T13:01:36.260Z,19.40
2022-12-09T13:04:25.975Z,20.75
2022-12-09T13:07:37.122Z,17.37
2022-12-09T13:10:23.000Z,17.45
2022-12-09T13:12:55.967Z,20.30
2022-12-09T13:15:40.888Z,18.82
2022-12-09T13:18:35.311Z,18.65
2022-12-09T13:21:06.241Z,22.73
2022-12-09T13:23:54.017Z,23.18
2022-12-09T13:26:45.269Z,22.27
2022-12-09T13:29:33.119Z,25.23
2022-12-09T13:32:32.130Z,26.85
2022-12-09T13:35:07.979Z,23.30
2022-12-09T13:37:52.066Z,27.20
2022-12-09T13:40:39.606Z,24.18
2022-12-09T13:43:24.019Z,33.55
2022-12-09T13:45:56.361Z,35.20
2022-12-09T13:48:32.205Z,32.50
2022-12-09T13:51:00.285Z,33.60
2022-12-09T13:53:40.009Z,31.95
2022-12-09T13:56:11.338Z,34.18
2022-12-09T13:59:08.773Z,37.90
2022-12-09T14:01:49.585Z,30.05
2022-12-09T14:04:36.668Z,26.52
2022-12-09T14:07:41.351Z,24.80
2022-12-09T14:10:43.657Z,20.12
2022-12-09T14:13:34.469Z,22.10
2022-12-09T14:16:28.023Z,19.75
2022-12-09T14:18:57.727Z,21.00
2022-12-09T14:21:30.156Z,19.40
2022-12-09T14:24:16.766Z,19.55
2022-12-09T14:26:47.733Z,18.05
2022-12-09T14:29:56.426Z,19.07
2022-12-09T14:32:52.941Z,19.32
2022-12-09T14:35:31.751Z,19.60
2022-12-09T14:38:22.759Z,20.68
2022-12-09T14:41:01.993Z,20.30
2022-12-09T14:44:13.019Z,21.17
2022-12-09T14:46:43.512Z,25.10
2022-12-09T14:49:28.070Z,21.87
2022-12-09T14:52:06.954Z,23.70
2022-12-09T14:54:47.081Z,25.95
2022-12-09T14:57:25.991Z,25.65
2022-12-09T14:59:56.515Z,19.90
2022-12-09T15:02:30.357Z,19.67
2022-12-09T15:05:01.166Z,16.90
2022-12-09T15:07:31.797Z,19.02
2022-12-09T15:10:08.526Z,20.90
2022-12-09T15:12:41.841Z,22.62
2022-12-09T15:15:32.941Z,20.68
2022-12-09T15:18:07.636Z,21.75
2022-12-09T15:20:39.413Z,19.50
2022-12-09T15:23:32.650Z,22.93
2022-12-09T15:26:04.738Z,21.23
2022-12-09T15:28:35.932Z,25.82
2022-12-09T15:31:18.444Z,19.37
2022-12-09T15:33:53.328Z,16.23
2022-12-09T15:36:29.060Z,16.55
2022-12-09T15:39:07.810Z,17.82
2022-12-09T15:42:03.671Z,21.05
2022-12-09T15:44:36.766Z,20.30
2022-12-09T15:49:44.699Z,19.75
2022-12-09T15:52:14.878Z,21.48
2022-12-09T15:54:43.911Z,25.32
2022-12-09T15:57:15.486Z,27.02
2022-12-09T15:59:52.399Z,31.02
2022-12-09T16:04:50.176Z,30.97
2022-12-09T16:07:20.397Z,20.55
2022-12-09T16:10:14.559Z,21.55
2022-12-09T16:15:14.472Z,31.17
2022-12-09T16:17:56.166Z,19.52
2022-12-09T16:20:34.696Z,19.92
2022-12-09T16:23:04.471Z,18.40
2022-12-09T16:25:43.657Z,18.73
2022-12-09T16:28:21.992Z,20.52
2022-12-09T16:30:53.050Z,21.00
2022-12-09T16:33:23.819Z,19.67
2022-12-09T16:36:05.404Z,22.40
2022-12-09T16:38:35.667Z,19.92
2022-12-09T16:41:07.985Z,16.77
2022-12-09T16:43:36.603Z,15.80
2022-12-09T16:46:18.508Z,15.65
2022-12-09T16:48:48.696Z,16.15
2022-12-09T16:51:20.678Z,16.97
2022-12-09T16:53:51.600Z,16.73
2022-12-09T16:56:24.752Z,16.97
2022-12-09T16:58:53.875Z,14.55
2022-12-09T17:01:26.673Z,17.75
2022-12-09T17:04:01.389Z,15.88
2022-12-09T17:06:28.964Z,27.52
2022-12-09T17:08:56.799Z,18.75
2022-12-09T17:11:24.650Z,17.05
2022-12-09T17:13:53.049Z,14.73
2022-12-09T17:16:22.611Z,15.93
2022-12-09T17:18:50.670Z,15.25
2022-12-09T17:21:18.647Z,16.70
2022-12-09T17:23:46.696Z,16.17
2022-12-09T17:26:18.544Z,17.10
2022-12-09T17:28:47.415Z,15.40
2022-12-09T17:31:22.827Z,16.60
2022-12-09T17:33:51.277Z,16.20
2022-12-09T17:36:19.475Z,16.40
2022-12-09T17:38:47.081Z,19.77
2022-12-09T17:41:18.108Z,18.85
2022-12-09T17:43:45.837Z,19.42
2022-12-09T17:46:13.743Z,24.47
2022-12-09T17:48:41.628Z,19.32
2022-12-09T17:51:12.703Z,20.95
2022-12-09T17:53:42.404Z,26.05
2022-12-09T17:56:17.718Z,21.15
2022-12-09T17:58:46.924Z,21.80
2022-12-09T18:01:18.421Z,20.68
2022-12-09T18:03:55.984Z,18.55
2022-12-09T18:06:17.172Z,13.85
2022-12-09T18:08:44.530Z,19.45
2022-12-09T18:11:12.117Z,16.32
2022-12-09T18:13:39.898Z,14.85
2022-12-09T18:16:10.066Z,15.13
2022-12-09T18:18:39.576Z,11.53
2022-12-09T18:21:15.099Z,15.30
2022-12-09T18:23:40.591Z,14.87
2022-12-09T18:26:11.445Z,14.20
2022-12-09T18:28:39.837Z,15.83
2022-12-09T18:31:11.317Z,23.10
2022-12-09T18:33:39.442Z,21.65
2022-12-09T18:36:10.597Z,20.40
2022-12-09T18:38:40.250Z,21.90
2022-12-09T18:41:18.266Z,16.17
2022-12-09T18:43:48.664Z,17.52
2022-12-09T18:46:25.164Z,16.55
2022-12-09T18:49:00.537Z,21.10
2022-12-09T18:51:30.796Z,19.30
2022-12-09T18:54:00.305Z,18.17
2022-12-09T18:56:28.649Z,21.00
2022-12-09T18:59:06.482Z,21.05
2022-12-09T19:01:30.136Z,16.12
2022-12-09T19:04:04.194Z,22.73
2022-12-09T19:06:38.644Z,19.50
2022-12-09T19:09:14.481Z,17.87
2022-12-09T19:11:44.240Z,22.55
2022-12-09T19:14:13.238Z,22.52
2022-12-09T19:16:41.387Z,20.88
2022-12-09T19:19:14.083Z,22.15
2022-12-09T19:21:42.381Z,22.07
2022-12-09T19:24:23.091Z,21.77
2022-12-09T19:26:53.374Z,19.30
2022-12-09T19:29:24.181Z,19.65
2022-12-09T19:31:53.996Z,25.35
2022-12-09T19:34:26.108Z,26.90
2022-12-09T19:36:56.966Z,25.35
2022-12-09T19:39:30.796Z,23.92
2022-12-09T19:41:59.254Z,17.95
2022-12-09T19:46:57.503Z,14.00
2022-12-09T19:49:25.390Z,17.35
2022-12-09T19:51:53.764Z,18.42
2022-12-09T19:54:28.093Z,16.77
2022-12-09T19:56:51.212Z,20.40
2022-12-09T19:59:18.624Z,21.33
2022-12-09T20:01:46.578Z,19.50
2022-12-09T20:06:50.715Z,22.58
2022-12-09T20:09:20.239Z,19.27
2022-12-09T20:11:47.859Z,16.77
2022-12-09T20:14:15.634Z,16.27
2022-12-09T20:16:43.396Z,16.02
2022-12-09T20:19:11.133Z,15.35
2022-12-09T20:21:40.051Z,15.55
2022-12-09T20:24:09.440Z,15.10
2022-12-09T20:26:37.931Z,15.20
2022-12-09T20:29:09.386Z,17.55
2022-12-09T20:31:38.299Z,17.35
2022-12-09T20:34:13.345Z,14.38
2022-12-09T20:36:43.970Z,15.60
2022-12-09T20:39:18.858Z,14.18
2022-12-09T20:41:47.167Z,11.80
2022-12-09T20:44:16.982Z,10.75
2022-12-09T20:46:48.536Z,11.95
2022-12-09T20:49:16.362Z,12.65
2022-12-09T20:51:44.846Z,13.75
2022-12-09T20:54:13.416Z,14.55
2022-12-09T20:56:41.812Z,15.03
2022-12-09T20:59:13.211Z,15.38
2022-12-09T21:01:43.039Z,14.25
2022-12-09T21:04:10.681Z,14.80
2022-12-09T21:06:40.306Z,16.87
2022-12-09T21:09:13.988Z,21.48
2022-12-09T21:11:41.689Z,14.85
2022-12-09T21:14:11.307Z,12.80
2022-12-09T21:16:42.197Z,17.95
2022-12-09T21:19:13.247Z,12.58
2022-12-09T21:21:46.016Z,11.08
2022-12-09T21:24:15.697Z,11.70
2022-12-09T21:26:45.823Z,12.15
2022-12-09T21:29:14.871Z,13.08
2022-12-09T21:31:43.596Z,11.78
2022-12-09T21:34:11.577Z,11.00
2022-12-09T21:36:42.375Z,15.85
2022-12-09T21:39:15.539Z,19.02
2022-12-09T21:41:43.445Z,17.82
2022-12-09T21:44:16.424Z,14.70
2022-12-09T21:46:44.776Z,9.18
2022-12-09T21:49:14.254Z,10.98
2022-12-09T21:51:43.225Z,14.83
2022-12-09T21:54:11.330Z,10.15
2022-12-09T21:56:38.639Z,12.28
2022-12-09T21:59:07.344Z,12.23
2022-12-09T22:01:39.238Z,11.30
2022-12-09T22:04:11.200Z,13.40
2022-12-09T22:06:41.052Z,14.83
2022-12-09T22:09:10.751Z,12.45
2022-12-09T22:11:39.623Z,13.18
2022-12-09T22:14:09.963Z,14.75
2022-12-09T22:16:41.317Z,15.40
2022-12-09T22:19:14.290Z,17.92
2022-12-09T22:21:41.961Z,16.32
2022-12-09T22:24:12.460Z,16.35
2022-12-09T22:26:42.682Z,14.28
2022-12-09T22:29:13.645Z,13.95
2022-12-09T22:31:42.785Z,13.50
2022-12-09T22:34:14.597Z,13.55
2022-12-09T22:36:42.553Z,16.30
2022-12-09T22:39:17.381Z,13.40
2022-12-09T22:41:45.971Z,14.25
2022-12-09T22:44:17.414Z,18.80
2022-12-09T22:46:47.389Z,19.35
2022-12-09T22:49:16.021Z,12.60
2022-12-09T22:51:44.604Z,9.03
2022-12-09T22:54:13.314Z,10.00
2022-12-09T22:56:42.728Z,8.43
2022-12-09T22:59:12.249Z,9.05
2022-12-09T23:01:40.102Z,8.08
2022-12-09T23:04:09.484Z,8.85
2022-12-09T23:06:39.242Z,8.80
2022-12-09T23:09:10.322Z,7.28
2022-12-09T23:11:37.704Z,7.35
2022-12-09T23:14:05.312Z,7.62
2022-12-09T23:16:33.018Z,8.20
2022-12-09T23:19:01.337Z,8.35
2022-12-09T23:21:33.246Z,8.50
2022-12-09T23:24:05.335Z,8.13
2022-12-09T23:26:36.580Z,8.78
2022-12-09T23:29:07.987Z,8.30
2022-12-09T23:31:37.252Z,9.03
2022-12-09T23:34:07.402Z,10.20
2022-12-09T23:36:38.441Z,9.80
2022-12-09T23:39:10.511Z,9.30
2022-12-09T23:41:40.231Z,8.90
2022-12-09T23:44:13.610Z,8.15
2022-12-09T23:49:09.077Z,7.03
2022-12-09T23:51:40.638Z,8.80
2022-12-09T23:54:10.382Z,7.60
2022-12-09T23:56:42.074Z,6.60
2022-12-09T23:59:13.250Z,8.75
